sensor_id;sensor_type;location;lat;lon;timestamp;P1;durP1;ratioP1;P2;durP2;ratioP2
1679;SDS011;838;51.794;12.258;2022-11-24T00:01:39;20.43;;;12.87;;
1679;SDS011;838;51.794;12.258;2022-11-24T00:04:05;15.73;;;11.23;;
1679;SDS011;838;51.794;12.258;2022-11-24T00:06:32;25.00;;;11.80;;
1679;SDS011;838;51.794;12.258;2022-11-24T00:08:59;16.13;;;10.93;;
1679;SDS011;838;51.794;12.258;2022-11-24T00:11:30;19.27;;;11.83;;
1679;SDS011;838;51.794;12.258;2022-11-24T00:13:57;21.37;;;11.10;;
1679;SDS011;838;51.794;12.258;2022-11-24T00:16:33;16.13;;;10.33;;
1679;SDS011;838;51.794;12.258;2022-11-24T00:19:03;19.47;;;11.43;;
1679;SDS011;838;51.794;12.258;2022-11-24T00:21:30;13.70;;;11.07;;
1679;SDS011;838;51.794;12.258;2022-11-24T00:23:57;17.17;;;10.80;;
1679;SDS011;838;51.794;12.258;2022-11-24T00:26:26;16.70;;;10.30;;
1679;SDS011;838;51.794;12.258;2022-11-24T00:28:55;14.27;;;9.83;;
1679;SDS011;838;51.794;12.258;2022-11-24T00:33:51;15.70;;;10.53;;
1679;SDS011;838;51.794;12.258;2022-11-24T00:36:19;12.93;;;10.00;;
1679;SDS011;838;51.794;12.258;2022-11-24T00:38:45;19.07;;;10.80;;
1679;SDS011;838;51.794;12.258;2022-11-24T00:41:12;15.63;;;10.47;;
1679;SDS011;838;51.794;12.258;2022-11-24T00:43:38;15.83;;;10.40;;
1679;SDS011;838;51.794;12.258;2022-11-24T00:46:04;17.87;;;11.00;;
1679;SDS011;838;51.794;12.258;2022-11-24T00:48:30;20.53;;;10.30;;
1679;SDS011;838;51.794;12.258;2022-11-24T00:50:56;17.00;;;10.57;;
1679;SDS011;838;51.794;12.258;2022-11-24T00:53:24;18.90;;;10.87;;
1679;SDS011;838;51.794;12.258;2022-11-24T00:55:50;17.23;;;10.77;;
1679;SDS011;838;51.794;12.258;2022-11-24T00:58:16;16.70;;;10.27;;
1679;SDS011;838;51.794;12.258;2022-11-24T01:00:42;16.90;;;11.27;;
1679;SDS011;838;51.794;12.258;2022-11-24T01:03:11;17.97;;;10.90;;
1679;SDS011;838;51.794;12.258;2022-11-24T01:05:37;18.07;;;10.17;;
1679;SDS011;838;51.794;12.258;2022-11-24T01:08:04;18.60;;;11.17;;
1679;SDS011;838;51.794;12.258;2022-11-24T01:10:30;17.67;;;10.60;;
1679;SDS011;838;51.794;12.258;2022-11-24T01:12:59;17.77;;;12.40;;
1679;SDS011;838;51.794;12.258;2022-11-24T01:15:25;17.63;;;11.60;;
1679;SDS011;838;51.794;12.258;2022-11-24T01:17:51;17.83;;;12.10;;
1679;SDS011;838;51.794;12.258;2022-11-24T01:20:17;18.60;;;10.60;;
1679;SDS011;838;51.794;12.258;2022-11-24T01:22:43;18.30;;;10.80;;
1679;SDS011;838;51.794;12.258;2022-11-24T01:25:09;14.57;;;10.77;;
1679;SDS011;838;51.794;12.258;2022-11-24T01:27:36;18.70;;;12.37;;
1679;SDS011;838;51.794;12.258;2022-11-24T01:30:02;16.20;;;10.60;;
1679;SDS011;838;51.794;12.258;2022-11-24T01:32:29;17.10;;;10.50;;
1679;SDS011;838;51.794;12.258;2022-11-24T01:34:57;21.30;;;11.87;;
1679;SDS011;838;51.794;12.258;2022-11-24T01:37:23;16.00;;;10.17;;
1679;SDS011;838;51.794;12.258;2022-11-24T01:39:49;12.37;;;9.40;;
1679;SDS011;838;51.794;12.258;2022-11-24T01:42:15;15.17;;;10.77;;
1679;SDS011;838;51.794;12.258;2022-11-24T01:44:41;15.53;;;9.93;;
1679;SDS011;838;51.794;12.258;2022-11-24T01:49:46;16.53;;;9.70;;
1679;SDS011;838;51.794;12.258;2022-11-24T01:52:15;18.03;;;10.00;;
1679;SDS011;838;51.794;12.258;2022-11-24T01:54:50;19.67;;;10.93;;
1679;SDS011;838;51.794;12.258;2022-11-24T01:57:30;19.00;;;10.67;;
1679;SDS011;838;51.794;12.258;2022-11-24T02:00:07;14.63;;;9.40;;
1679;SDS011;838;51.794;12.258;2022-11-24T02:02:35;14.47;;;9.87;;
1679;SDS011;838;51.794;12.258;2022-11-24T02:05:02;14.90;;;10.03;;
1679;SDS011;838;51.794;12.258;2022-11-24T02:07:35;14.43;;;9.30;;
1679;SDS011;838;51.794;12.258;2022-11-24T02:10:03;16.37;;;10.43;;
1679;SDS011;838;51.794;12.258;2022-11-24T02:12:34;18.50;;;10.97;;
1679;SDS011;838;51.794;12.258;2022-11-24T02:15:04;15.10;;;9.97;;
1679;SDS011;838;51.794;12.258;2022-11-24T02:17:31;17.80;;;11.47;;
1679;SDS011;838;51.794;12.258;2022-11-24T02:19:57;18.10;;;11.40;;
1679;SDS011;838;51.794;12.258;2022-11-24T02:27:27;15.87;;;10.30;;
1679;SDS011;838;51.794;12.258;2022-11-24T02:29:52;14.07;;;9.23;;
1679;SDS011;838;51.794;12.258;2022-11-24T02:32:18;15.00;;;9.73;;
1679;SDS011;838;51.794;12.258;2022-11-24T02:34:45;14.67;;;10.03;;
1679;SDS011;838;51.794;12.258;2022-11-24T02:37:11;13.37;;;8.70;;
1679;SDS011;838;51.794;12.258;2022-11-24T02:39:36;14.07;;;10.57;;
1679;SDS011;838;51.794;12.258;2022-11-24T02:42:04;20.63;;;10.80;;
1679;SDS011;838;51.794;12.258;2022-11-24T02:44:34;18.50;;;10.87;;
1679;SDS011;838;51.794;12.258;2022-11-24T02:47:05;17.13;;;10.47;;
1679;SDS011;838;51.794;12.258;2022-11-24T02:49:33;14.47;;;10.40;;
1679;SDS011;838;51.794;12.258;2022-11-24T02:51:59;16.93;;;11.10;;
1679;SDS011;838;51.794;12.258;2022-11-24T02:54:25;17.53;;;10.70;;
1679;SDS011;838;51.794;12.258;2022-11-24T02:56:51;19.80;;;11.40;;
1679;SDS011;838;51.794;12.258;2022-11-24T02:59:16;17.03;;;9.77;;
1679;SDS011;838;51.794;12.258;2022-11-24T03:01:42;22.07;;;10.33;;
1679;SDS011;838;51.794;12.258;2022-11-24T03:04:08;17.27;;;10.10;;
1679;SDS011;838;51.794;12.258;2022-11-24T03:06:34;17.47;;;10.80;;
1679;SDS011;838;51.794;12.258;2022-11-24T03:09:00;14.87;;;9.97;;
1679;SDS011;838;51.794;12.258;2022-11-24T03:11:25;16.00;;;11.20;;
1679;SDS011;838;51.794;12.258;2022-11-24T03:13:51;16.97;;;10.77;;
1679;SDS011;838;51.794;12.258;2022-11-24T03:16:17;19.23;;;11.67;;
1679;SDS011;838;51.794;12.258;2022-11-24T03:18:42;20.93;;;10.90;;
1679;SDS011;838;51.794;12.258;2022-11-24T03:21:08;18.87;;;11.20;;
1679;SDS011;838;51.794;12.258;2022-11-24T03:23:34;18.80;;;11.23;;
1679;SDS011;838;51.794;12.258;2022-11-24T03:26:07;17.50;;;10.10;;
1679;SDS011;838;51.794;12.258;2022-11-24T03:28:33;16.83;;;9.90;;
1679;SDS011;838;51.794;12.258;2022-11-24T03:30:59;20.80;;;11.93;;
1679;SDS011;838;51.794;12.258;2022-11-24T03:33:26;14.70;;;10.80;;
1679;SDS011;838;51.794;12.258;2022-11-24T03:35:52;16.43;;;10.70;;
1679;SDS011;838;51.794;12.258;2022-11-24T03:38:17;19.57;;;10.73;;
1679;SDS011;838;51.794;12.258;2022-11-24T03:40:43;15.13;;;9.57;;
1679;SDS011;838;51.794;12.258;2022-11-24T03:43:09;16.83;;;10.90;;
1679;SDS011;838;51.794;12.258;2022-11-24T03:45:34;15.53;;;10.77;;
1679;SDS011;838;51.794;12.258;2022-11-24T03:48:01;17.17;;;9.43;;
1679;SDS011;838;51.794;12.258;2022-11-24T03:50:26;17.10;;;10.03;;
1679;SDS011;838;51.794;12.258;2022-11-24T03:52:52;17.37;;;9.63;;
1679;SDS011;838;51.794;12.258;2022-11-24T03:55:18;13.87;;;9.47;;
1679;SDS011;838;51.794;12.258;2022-11-24T03:57:43;15.40;;;8.93;;
1679;SDS011;838;51.794;12.258;2022-11-24T04:00:09;16.70;;;9.43;;
1679;SDS011;838;51.794;12.258;2022-11-24T04:02:36;20.20;;;10.23;;
1679;SDS011;838;51.794;12.258;2022-11-24T04:05:02;14.93;;;9.10;;
1679;SDS011;838;51.794;12.258;2022-11-24T04:07:29;14.70;;;9.40;;
1679;SDS011;838;51.794;12.258;2022-11-24T04:09:54;12.47;;;8.70;;
1679;SDS011;838;51.794;12.258;2022-11-24T04:12:20;12.50;;;8.77;;
1679;SDS011;838;51.794;12.258;2022-11-24T04:15:05;16.27;;;9.53;;
1679;SDS011;838;51.794;12.258;2022-11-24T04:17:31;12.03;;;8.70;;
1679;SDS011;838;51.794;12.258;2022-11-24T04:19:56;12.20;;;9.30;;
1679;SDS011;838;51.794;12.258;2022-11-24T04:22:22;17.17;;;9.60;;
1679;SDS011;838;51.794;12.258;2022-11-24T04:24:48;13.73;;;8.77;;
1679;SDS011;838;51.794;12.258;2022-11-24T04:27:13;15.33;;;10.53;;
1679;SDS011;838;51.794;12.258;2022-11-24T04:29:39;16.53;;;10.00;;
1679;SDS011;838;51.794;12.258;2022-11-24T04:32:05;13.90;;;9.10;;
1679;SDS011;838;51.794;12.258;2022-11-24T04:34:32;13.97;;;8.87;;
1679;SDS011;838;51.794;12.258;2022-11-24T04:36:58;13.97;;;9.50;;
1679;SDS011;838;51.794;12.258;2022-11-24T04:39:23;12.97;;;8.80;;
1679;SDS011;838;51.794;12.258;2022-11-24T04:41:49;11.53;;;8.40;;
1679;SDS011;838;51.794;12.258;2022-11-24T04:44:15;14.13;;;9.43;;
1679;SDS011;838;51.794;12.258;2022-11-24T04:46:41;13.17;;;8.90;;
1679;SDS011;838;51.794;12.258;2022-11-24T04:49:06;11.90;;;8.73;;
1679;SDS011;838;51.794;12.258;2022-11-24T04:51:36;17.47;;;9.23;;
1679;SDS011;838;51.794;12.258;2022-11-24T04:54:03;15.77;;;9.77;;
1679;SDS011;838;51.794;12.258;2022-11-24T04:56:29;11.83;;;8.70;;
1679;SDS011;838;51.794;12.258;2022-11-24T04:58:55;13.20;;;8.93;;
1679;SDS011;838;51.794;12.258;2022-11-24T05:01:21;15.57;;;9.77;;
1679;SDS011;838;51.794;12.258;2022-11-24T05:03:47;12.00;;;9.63;;
1679;SDS011;838;51.794;12.258;2022-11-24T05:06:12;14.20;;;9.17;;
1679;SDS011;838;51.794;12.258;2022-11-24T05:08:38;14.90;;;10.30;;
1679;SDS011;838;51.794;12.258;2022-11-24T05:11:04;14.97;;;9.63;;
1679;SDS011;838;51.794;12.258;2022-11-24T05:13:31;18.10;;;9.90;;
1679;SDS011;838;51.794;12.258;2022-11-24T05:15:57;15.90;;;10.87;;
1679;SDS011;838;51.794;12.258;2022-11-24T05:18:24;16.60;;;11.77;;
1679;SDS011;838;51.794;12.258;2022-11-24T05:20:50;16.37;;;10.60;;
1679;SDS011;838;51.794;12.258;2022-11-24T05:23:15;16.77;;;9.97;;
1679;SDS011;838;51.794;12.258;2022-11-24T05:25:42;16.23;;;10.37;;
1679;SDS011;838;51.794;12.258;2022-11-24T05:28:08;15.20;;;11.27;;
1679;SDS011;838;51.794;12.258;2022-11-24T05:30:35;16.73;;;9.73;;
1679;SDS011;838;51.794;12.258;2022-11-24T05:33:07;13.90;;;8.93;;
1679;SDS011;838;51.794;12.258;2022-11-24T05:35:47;17.50;;;10.10;;
1679;SDS011;838;51.794;12.258;2022-11-24T05:38:14;17.13;;;10.63;;
1679;SDS011;838;51.794;12.258;2022-11-24T05:40:41;19.87;;;11.67;;
1679;SDS011;838;51.794;12.258;2022-11-24T05:43:14;18.70;;;11.57;;
1679;SDS011;838;51.794;12.258;2022-11-24T05:45:41;17.47;;;11.70;;
1679;SDS011;838;51.794;12.258;2022-11-24T05:48:08;16.67;;;11.33;;
1679;SDS011;838;51.794;12.258;2022-11-24T05:50:36;16.10;;;9.73;;
1679;SDS011;838;51.794;12.258;2022-11-24T05:53:09;13.90;;;9.90;;
1679;SDS011;838;51.794;12.258;2022-11-24T05:55:38;16.10;;;10.70;;
1679;SDS011;838;51.794;12.258;2022-11-24T05:58:05;17.70;;;11.60;;
1679;SDS011;838;51.794;12.258;2022-11-24T06:00:32;22.63;;;9.80;;
1679;SDS011;838;51.794;12.258;2022-11-24T06:02:59;17.20;;;11.10;;
1679;SDS011;838;51.794;12.258;2022-11-24T06:05:26;13.53;;;10.20;;
1679;SDS011;838;51.794;12.258;2022-11-24T06:07:53;19.20;;;12.00;;
1679;SDS011;838;51.794;12.258;2022-11-24T06:10:20;15.43;;;10.60;;
1679;SDS011;838;51.794;12.258;2022-11-24T06:12:48;15.80;;;11.07;;
1679;SDS011;838;51.794;12.258;2022-11-24T06:15:14;16.60;;;11.80;;
1679;SDS011;838;51.794;12.258;2022-11-24T06:17:40;16.43;;;11.20;;
1679;SDS011;838;51.794;12.258;2022-11-24T06:20:06;18.83;;;11.60;;
1679;SDS011;838;51.794;12.258;2022-11-24T06:22:32;17.37;;;11.20;;
1679;SDS011;838;51.794;12.258;2022-11-24T06:24:58;20.40;;;11.00;;
1679;SDS011;838;51.794;12.258;2022-11-24T06:27:24;14.90;;;9.73;;
1679;SDS011;838;51.794;12.258;2022-11-24T06:29:50;17.23;;;11.30;;
1679;SDS011;838;51.794;12.258;2022-11-24T06:32:16;16.83;;;10.03;;
1679;SDS011;838;51.794;12.258;2022-11-24T06:34:42;16.63;;;11.93;;
1679;SDS011;838;51.794;12.258;2022-11-24T06:37:07;17.73;;;12.67;;
1679;SDS011;838;51.794;12.258;2022-11-24T06:39:33;19.40;;;12.27;;
1679;SDS011;838;51.794;12.258;2022-11-24T06:41:59;16.03;;;10.83;;
1679;SDS011;838;51.794;12.258;2022-11-24T06:44:25;18.47;;;11.93;;
1679;SDS011;838;51.794;12.258;2022-11-24T06:46:51;16.90;;;11.00;;
1679;SDS011;838;51.794;12.258;2022-11-24T06:49:17;22.70;;;10.60;;
1679;SDS011;838;51.794;12.258;2022-11-24T06:51:43;20.37;;;12.97;;
1679;SDS011;838;51.794;12.258;2022-11-24T06:54:09;17.67;;;10.90;;
1679;SDS011;838;51.794;12.258;2022-11-24T06:56:38;21.60;;;14.97;;
1679;SDS011;838;51.794;12.258;2022-11-24T06:59:03;17.87;;;13.80;;
1679;SDS011;838;51.794;12.258;2022-11-24T07:01:29;16.90;;;12.70;;
1679;SDS011;838;51.794;12.258;2022-11-24T07:03:56;14.30;;;10.43;;
1679;SDS011;838;51.794;12.258;2022-11-24T07:06:22;12.80;;;9.07;;
1679;SDS011;838;51.794;12.258;2022-11-24T07:08:49;15.40;;;10.27;;
1679;SDS011;838;51.794;12.258;2022-11-24T07:11:17;16.17;;;11.10;;
1679;SDS011;838;51.794;12.258;2022-11-24T07:13:44;18.83;;;12.20;;
1679;SDS011;838;51.794;12.258;2022-11-24T07:18:44;18.20;;;11.97;;
1679;SDS011;838;51.794;12.258;2022-11-24T07:21:12;20.83;;;11.80;;
1679;SDS011;838;51.794;12.258;2022-11-24T07:23:38;16.43;;;10.40;;
1679;SDS011;838;51.794;12.258;2022-11-24T07:26:04;17.87;;;10.60;;
1679;SDS011;838;51.794;12.258;2022-11-24T07:28:31;13.30;;;9.57;;
1679;SDS011;838;51.794;12.258;2022-11-24T07:30:58;14.97;;;10.60;;
1679;SDS011;838;51.794;12.258;2022-11-24T07:33:24;17.20;;;9.73;;
1679;SDS011;838;51.794;12.258;2022-11-24T07:35:53;14.93;;;11.03;;
1679;SDS011;838;51.794;12.258;2022-11-24T07:38:23;16.00;;;10.80;;
1679;SDS011;838;51.794;12.258;2022-11-24T07:40:49;15.87;;;9.77;;
1679;SDS011;838;51.794;12.258;2022-11-24T07:43:14;18.33;;;10.23;;
1679;SDS011;838;51.794;12.258;2022-11-24T07:45:40;18.37;;;10.60;;
1679;SDS011;838;51.794;12.258;2022-11-24T07:48:06;25.50;;;11.60;;
1679;SDS011;838;51.794;12.258;2022-11-24T07:50:31;13.80;;;9.50;;
1679;SDS011;838;51.794;12.258;2022-11-24T07:53:03;16.80;;;10.07;;
1679;SDS011;838;51.794;12.258;2022-11-24T07:55:29;13.73;;;9.77;;
1679;SDS011;838;51.794;12.258;2022-11-24T07:57:57;15.63;;;10.90;;
1679;SDS011;838;51.794;12.258;2022-11-24T08:00:25;14.97;;;11.00;;
1679;SDS011;838;51.794;12.258;2022-11-24T08:02:51;16.67;;;10.23;;
1679;SDS011;838;51.794;12.258;2022-11-24T08:05:17;14.07;;;9.93;;
1679;SDS011;838;51.794;12.258;2022-11-24T08:07:43;17.60;;;10.67;;
1679;SDS011;838;51.794;12.258;2022-11-24T08:10:09;22.10;;;12.27;;
1679;SDS011;838;51.794;12.258;2022-11-24T08:12:35;17.97;;;11.00;;
1679;SDS011;838;51.794;12.258;2022-11-24T08:15:00;24.03;;;12.20;;
1679;SDS011;838;51.794;12.258;2022-11-24T08:17:27;22.10;;;11.60;;
1679;SDS011;838;51.794;12.258;2022-11-24T08:19:53;19.40;;;12.50;;
1679;SDS011;838;51.794;12.258;2022-11-24T08:22:19;20.27;;;13.10;;
1679;SDS011;838;51.794;12.258;2022-11-24T08:24:45;21.20;;;11.83;;
1679;SDS011;838;51.794;12.258;2022-11-24T08:27:13;18.03;;;12.63;;
1679;SDS011;838;51.794;12.258;2022-11-24T08:29:40;21.13;;;11.60;;
1679;SDS011;838;51.794;12.258;2022-11-24T08:32:06;16.33;;;11.50;;
1679;SDS011;838;51.794;12.258;2022-11-24T08:34:32;21.33;;;12.60;;
1679;SDS011;838;51.794;12.258;2022-11-24T08:36:58;15.77;;;11.10;;
1679;SDS011;838;51.794;12.258;2022-11-24T08:39:24;19.13;;;11.73;;
1679;SDS011;838;51.794;12.258;2022-11-24T08:41:50;20.93;;;13.00;;
1679;SDS011;838;51.794;12.258;2022-11-24T08:44:15;16.83;;;11.47;;
1679;SDS011;838;51.794;12.258;2022-11-24T08:46:42;16.43;;;11.87;;
1679;SDS011;838;51.794;12.258;2022-11-24T08:49:09;17.03;;;10.40;;
1679;SDS011;838;51.794;12.258;2022-11-24T08:51:35;21.73;;;11.37;;
1679;SDS011;838;51.794;12.258;2022-11-24T08:54:01;15.03;;;11.40;;
1679;SDS011;838;51.794;12.258;2022-11-24T08:56:27;19.57;;;11.03;;
1679;SDS011;838;51.794;12.258;2022-11-24T08:58:54;17.47;;;11.50;;
1679;SDS011;838;51.794;12.258;2022-11-24T09:01:21;18.63;;;11.30;;
1679;SDS011;838;51.794;12.258;2022-11-24T09:03:47;19.17;;;10.80;;
1679;SDS011;838;51.794;12.258;2022-11-24T09:06:14;12.67;;;9.70;;
1679;SDS011;838;51.794;12.258;2022-11-24T09:08:41;16.10;;;9.37;;
1679;SDS011;838;51.794;12.258;2022-11-24T09:11:07;16.37;;;8.80;;
1679;SDS011;838;51.794;12.258;2022-11-24T09:13:35;13.67;;;9.50;;
1679;SDS011;838;51.794;12.258;2022-11-24T09:16:05;16.97;;;8.73;;
1679;SDS011;838;51.794;12.258;2022-11-24T09:18:36;15.13;;;9.77;;
1679;SDS011;838;51.794;12.258;2022-11-24T09:21:09;16.20;;;11.30;;
1679;SDS011;838;51.794;12.258;2022-11-24T09:23:39;22.13;;;10.77;;
1679;SDS011;838;51.794;12.258;2022-11-24T09:26:08;13.00;;;8.30;;
1679;SDS011;838;51.794;12.258;2022-11-24T09:28:35;13.20;;;9.40;;
1679;SDS011;838;51.794;12.258;2022-11-24T09:31:10;14.90;;;9.40;;
1679;SDS011;838;51.794;12.258;2022-11-24T09:33:40;9.87;;;7.60;;
1679;SDS011;838;51.794;12.258;2022-11-24T09:36:07;15.83;;;6.90;;
1679;SDS011;838;51.794;12.258;2022-11-24T09:38:33;11.03;;;6.37;;
1679;SDS011;838;51.794;12.258;2022-11-24T09:46:18;11.03;;;6.90;;
1679;SDS011;838;51.794;12.258;2022-11-24T09:48:45;12.30;;;8.50;;
1679;SDS011;838;51.794;12.258;2022-11-24T09:51:15;9.70;;;7.10;;
1679;SDS011;838;51.794;12.258;2022-11-24T09:53:47;10.30;;;7.10;;
1679;SDS011;838;51.794;12.258;2022-11-24T09:56:33;9.87;;;6.17;;
1679;SDS011;838;51.794;12.258;2022-11-24T09:59:21;12.70;;;5.13;;
1679;SDS011;838;51.794;12.258;2022-11-24T10:01:49;13.00;;;5.40;;
1679;SDS011;838;51.794;12.258;2022-11-24T10:04:33;13.17;;;6.10;;
1679;SDS011;838;51.794;12.258;2022-11-24T10:09:44;8.10;;;5.20;;
1679;SDS011;838;51.794;12.258;2022-11-24T10:18:50;8.03;;;4.87;;
1679;SDS011;838;51.794;12.258;2022-11-24T10:21:46;10.87;;;4.67;;
1679;SDS011;838;51.794;12.258;2022-11-24T10:24:29;11.53;;;4.43;;
1679;SDS011;838;51.794;12.258;2022-11-24T10:27:21;9.10;;;4.83;;
1679;SDS011;838;51.794;12.258;2022-11-24T10:29:55;8.20;;;4.37;;
1679;SDS011;838;51.794;12.258;2022-11-24T10:32:39;11.60;;;4.00;;
1679;SDS011;838;51.794;12.258;2022-11-24T10:35:13;8.97;;;5.30;;
1679;SDS011;838;51.794;12.258;2022-11-24T10:38:04;8.70;;;4.37;;
1679;SDS011;838;51.794;12.258;2022-11-24T10:40:41;9.57;;;4.60;;
1679;SDS011;838;51.794;12.258;2022-11-24T10:43:12;10.60;;;5.43;;
1679;SDS011;838;51.794;12.258;2022-11-24T10:45:38;9.67;;;4.87;;
1679;SDS011;838;51.794;12.258;2022-11-24T10:48:44;8.17;;;4.53;;
1679;SDS011;838;51.794;12.258;2022-11-24T10:53:53;8.47;;;4.40;;
1679;SDS011;838;51.794;12.258;2022-11-24T10:56:26;16.83;;;5.50;;
1679;SDS011;838;51.794;12.258;2022-11-24T10:59:51;7.73;;;3.57;;
1679;SDS011;838;51.794;12.258;2022-11-24T11:02:08;13.37;;;5.10;;
1679;SDS011;838;51.794;12.258;2022-11-24T11:04:52;13.13;;;5.13;;
1679;SDS011;838;51.794;12.258;2022-11-24T11:07:23;11.47;;;4.50;;
1679;SDS011;838;51.794;12.258;2022-11-24T11:12:48;13.33;;;4.30;;
1679;SDS011;838;51.794;12.258;2022-11-24T11:15:27;6.57;;;3.70;;
1679;SDS011;838;51.794;12.258;2022-11-24T11:17:58;8.37;;;4.23;;
1679;SDS011;838;51.794;12.258;2022-11-24T11:20:28;11.53;;;4.00;;
1679;SDS011;838;51.794;12.258;2022-11-24T11:22:59;6.87;;;3.53;;
1679;SDS011;838;51.794;12.258;2022-11-24T11:25:43;11.50;;;4.90;;
1679;SDS011;838;51.794;12.258;2022-11-24T11:28:21;8.20;;;4.40;;
1679;SDS011;838;51.794;12.258;2022-11-24T11:30:57;10.27;;;4.10;;
1679;SDS011;838;51.794;12.258;2022-11-24T11:33:30;11.40;;;4.37;;
1679;SDS011;838;51.794;12.258;2022-11-24T11:36:00;13.07;;;4.80;;
1679;SDS011;838;51.794;12.258;2022-11-24T11:38:34;10.77;;;4.43;;
1679;SDS011;838;51.794;12.258;2022-11-24T11:41:03;9.40;;;3.60;;
1679;SDS011;838;51.794;12.258;2022-11-24T11:43:33;10.00;;;4.03;;
1679;SDS011;838;51.794;12.258;2022-11-24T11:46:04;10.00;;;3.83;;
1679;SDS011;838;51.794;12.258;2022-11-24T11:48:36;12.77;;;3.90;;
1679;SDS011;838;51.794;12.258;2022-11-24T11:51:31;9.10;;;4.23;;
1679;SDS011;838;51.794;12.258;2022-11-24T12:00:27;11.20;;;4.57;;
1679;SDS011;838;51.794;12.258;2022-11-24T12:05:59;6.63;;;3.93;;
1679;SDS011;838;51.794;12.258;2022-11-24T12:11:37;8.77;;;3.80;;
1679;SDS011;838;51.794;12.258;2022-11-24T12:14:30;10.20;;;4.20;;
1679;SDS011;838;51.794;12.258;2022-11-24T12:17:04;11.07;;;3.87;;
1679;SDS011;838;51.794;12.258;2022-11-24T12:19:57;8.60;;;3.70;;
1679;SDS011;838;51.794;12.258;2022-11-24T12:22:58;7.13;;;4.27;;
1679;SDS011;838;51.794;12.258;2022-11-24T12:25:45;14.13;;;4.97;;
1679;SDS011;838;51.794;12.258;2022-11-24T12:36:25;13.20;;;4.17;;
1679;SDS011;838;51.794;12.258;2022-11-24T12:39:06;11.97;;;4.53;;
1679;SDS011;838;51.794;12.258;2022-11-24T12:44:53;14.10;;;4.40;;
1679;SDS011;838;51.794;12.258;2022-11-24T12:52:52;9.40;;;4.27;;
1679;SDS011;838;51.794;12.258;2022-11-24T12:55:27;13.30;;;5.30;;
1679;SDS011;838;51.794;12.258;2022-11-24T12:58:01;10.43;;;5.10;;
1679;SDS011;838;51.794;12.258;2022-11-24T13:00:47;25.10;;;13.47;;
1679;SDS011;838;51.794;12.258;2022-11-24T13:08:40;17.60;;;7.80;;
1679;SDS011;838;51.794;12.258;2022-11-24T13:16:23;12.97;;;6.17;;
1679;SDS011;838;51.794;12.258;2022-11-24T13:18:54;9.97;;;5.80;;
1679;SDS011;838;51.794;12.258;2022-11-24T13:29:35;17.43;;;7.17;;
1679;SDS011;838;51.794;12.258;2022-11-24T13:39:56;15.07;;;6.30;;
1679;SDS011;838;51.794;12.258;2022-11-24T13:42:25;13.40;;;5.60;;
1679;SDS011;838;51.794;12.258;2022-11-24T13:44:52;19.40;;;6.37;;
1679;SDS011;838;51.794;12.258;2022-11-24T13:50:13;13.50;;;5.93;;
1679;SDS011;838;51.794;12.258;2022-11-24T13:52:48;11.83;;;6.47;;
1679;SDS011;838;51.794;12.258;2022-11-24T13:55:37;9.53;;;5.63;;
1679;SDS011;838;51.794;12.258;2022-11-24T14:06:12;14.33;;;5.27;;
1679;SDS011;838;51.794;12.258;2022-11-24T14:08:51;15.33;;;5.63;;
1679;SDS011;838;51.794;12.258;2022-11-24T14:11:18;10.53;;;5.00;;
1679;SDS011;838;51.794;12.258;2022-11-24T14:13:45;11.73;;;5.83;;
1679;SDS011;838;51.794;12.258;2022-11-24T14:16:13;14.87;;;5.80;;
1679;SDS011;838;51.794;12.258;2022-11-24T14:18:44;16.33;;;5.60;;
1679;SDS011;838;51.794;12.258;2022-11-24T14:23:55;10.17;;;5.30;;
1679;SDS011;838;51.794;12.258;2022-11-24T14:26:22;11.80;;;4.97;;
1679;SDS011;838;51.794;12.258;2022-11-24T14:29:05;9.20;;;4.37;;
1679;SDS011;838;51.794;12.258;2022-11-24T14:31:39;11.33;;;3.77;;
1679;SDS011;838;51.794;12.258;2022-11-24T14:34:15;9.40;;;4.40;;
1679;SDS011;838;51.794;12.258;2022-11-24T14:36:45;10.90;;;4.63;;
1679;SDS011;838;51.794;12.258;2022-11-24T14:39:12;8.50;;;4.60;;
1679;SDS011;838;51.794;12.258;2022-11-24T14:41:40;8.80;;;4.90;;
1679;SDS011;838;51.794;12.258;2022-11-24T14:44:24;11.73;;;4.83;;
1679;SDS011;838;51.794;12.258;2022-11-24T14:47:02;11.00;;;5.20;;
1679;SDS011;838;51.794;12.258;2022-11-24T14:49:39;9.83;;;5.47;;
1679;SDS011;838;51.794;12.258;2022-11-24T14:52:14;9.63;;;5.00;;
1679;SDS011;838;51.794;12.258;2022-11-24T14:55:04;15.50;;;5.60;;
1679;SDS011;838;51.794;12.258;2022-11-24T14:57:33;8.67;;;5.20;;
1679;SDS011;838;51.794;12.258;2022-11-24T15:05:10;10.43;;;6.30;;
1679;SDS011;838;51.794;12.258;2022-11-24T15:07:45;10.93;;;6.30;;
1679;SDS011;838;51.794;12.258;2022-11-24T15:10:33;12.00;;;6.63;;
1679;SDS011;838;51.794;12.258;2022-11-24T15:13:02;12.13;;;7.20;;
1679;SDS011;838;51.794;12.258;2022-11-24T15:15:44;10.87;;;6.20;;
1679;SDS011;838;51.794;12.258;2022-11-24T15:20:51;23.00;;;8.40;;
1679;SDS011;838;51.794;12.258;2022-11-24T15:23:25;11.30;;;6.90;;
1679;SDS011;838;51.794;12.258;2022-11-24T15:25:52;13.93;;;8.60;;
1679;SDS011;838;51.794;12.258;2022-11-24T15:28:22;20.40;;;11.17;;
1679;SDS011;838;51.794;12.258;2022-11-24T15:30:51;20.33;;;12.30;;
1679;SDS011;838;51.794;12.258;2022-11-24T15:33:36;26.63;;;12.40;;
1679;SDS011;838;51.794;12.258;2022-11-24T15:36:03;17.80;;;9.97;;
1679;SDS011;838;51.794;12.258;2022-11-24T15:38:30;15.53;;;7.77;;
1679;SDS011;838;51.794;12.258;2022-11-24T15:40:57;14.33;;;6.17;;
1679;SDS011;838;51.794;12.258;2022-11-24T15:43:34;10.57;;;5.43;;
1679;SDS011;838;51.794;12.258;2022-11-24T15:46:03;13.03;;;5.10;;
1679;SDS011;838;51.794;12.258;2022-11-24T15:48:30;10.43;;;5.10;;
1679;SDS011;838;51.794;12.258;2022-11-24T15:50:57;9.80;;;6.87;;
1679;SDS011;838;51.794;12.258;2022-11-24T15:56:31;10.30;;;4.57;;
1679;SDS011;838;51.794;12.258;2022-11-24T15:59:00;12.60;;;4.73;;
1679;SDS011;838;51.794;12.258;2022-11-24T16:01:30;9.40;;;4.90;;
1679;SDS011;838;51.794;12.258;2022-11-24T16:03:57;15.83;;;5.77;;
1679;SDS011;838;51.794;12.258;2022-11-24T16:06:23;14.60;;;5.90;;
1679;SDS011;838;51.794;12.258;2022-11-24T16:08:49;16.83;;;6.20;;
1679;SDS011;838;51.794;12.258;2022-11-24T16:11:18;15.27;;;6.90;;
1679;SDS011;838;51.794;12.258;2022-11-24T16:13:48;15.87;;;6.63;;
1679;SDS011;838;51.794;12.258;2022-11-24T16:16:16;14.60;;;7.93;;
1679;SDS011;838;51.794;12.258;2022-11-24T16:18:42;13.67;;;7.17;;
1679;SDS011;838;51.794;12.258;2022-11-24T16:21:09;12.20;;;7.10;;
1679;SDS011;838;51.794;12.258;2022-11-24T16:23:49;16.33;;;8.10;;
1679;SDS011;838;51.794;12.258;2022-11-24T16:26:15;14.73;;;6.50;;
1679;SDS011;838;51.794;12.258;2022-11-24T16:28:41;15.90;;;7.80;;
1679;SDS011;838;51.794;12.258;2022-11-24T16:31:09;17.20;;;6.70;;
1679;SDS011;838;51.794;12.258;2022-11-24T16:33:36;14.47;;;8.03;;
1679;SDS011;838;51.794;12.258;2022-11-24T16:36:04;12.77;;;6.80;;
1679;SDS011;838;51.794;12.258;2022-11-24T16:38:43;13.23;;;7.03;;
1679;SDS011;838;51.794;12.258;2022-11-24T16:41:09;13.20;;;9.60;;
1679;SDS011;838;51.794;12.258;2022-11-24T16:43:35;15.83;;;6.90;;
1679;SDS011;838;51.794;12.258;2022-11-24T16:48:46;14.37;;;10.37;;
1679;SDS011;838;51.794;12.258;2022-11-24T16:51:14;13.83;;;8.90;;
1679;SDS011;838;51.794;12.258;2022-11-24T16:53:41;14.30;;;7.47;;
1679;SDS011;838;51.794;12.258;2022-11-24T16:56:08;12.47;;;6.10;;
1679;SDS011;838;51.794;12.258;2022-11-24T16:58:39;11.43;;;5.73;;
1679;SDS011;838;51.794;12.258;2022-11-24T17:01:07;12.70;;;5.77;;
1679;SDS011;838;51.794;12.258;2022-11-24T17:03:35;14.30;;;6.73;;
1679;SDS011;838;51.794;12.258;2022-11-24T17:06:02;18.23;;;9.97;;